Time;durP1;ratioP1;P1;durP2;ratioP2;P2;SDS_P1;SDS_P2;PMS_P1;PMS_P2;Temp;Humidity;BMP_temperature;BMP_pressure;BME280_temperature;BME280_humidity;BME280_pressure;Samples;Min_cycle;Max_cycle;Signal;HPM_P1;HPM_P2
2022/01/03 00:01:49;;;;;;;9.23;5.63;;;10.40;99.90;;;;;;5075615;28;20186;-65
2022/01/03 00:04:16;;;;;;;7.50;6.10;;;10.30;99.90;;;;;;5074309;28;20655;-65
2022/01/03 00:06:44;;;;;;;11.53;5.83;;;10.40;99.90;;;;;;5075717;28;20243;-64
2022/01/03 00:09:09;;;;;;;15.23;6.17;;;10.40;99.90;;;;;;5075681;28;20161;-64
2022/01/03 00:11:35;;;;;;;11.10;5.93;;;10.30;99.90;;;;;;5076049;28;20586;-65
2022/01/03 00:14:02;;;;;;;6.90;5.57;;;10.30;99.90;;;;;;5074255;28;20185;-65
2022/01/03 00:16:29;;;;;;;13.77;5.80;;;10.40;99.90;;;;;;5075982;28;20253;-64
2022/01/03 00:18:55;;;;;;;7.50;5.53;;;10.30;99.90;;;;;;5075244;28;20204;-64
2022/01/03 00:21:27;;;;;;;7.47;5.63;;;10.30;99.90;;;;;;5075101;28;20196;-66
2022/01/03 00:24:05;;;;;;;6.40;5.63;;;10.30;99.90;;;;;;5075433;28;20169;-64
2022/01/03 00:26:33;;;;;;;13.57;6.17;;;10.30;99.90;;;;;;5075079;28;20205;-64
2022/01/03 00:29:09;;;;;;;11.10;5.83;;;10.30;99.90;;;;;;5075226;28;20169;-64
2022/01/03 00:31:38;;;;;;;5.97;5.33;;;10.30;99.90;;;;;;5073796;28;20253;-64
2022/01/03 00:34:06;;;;;;;10.90;5.67;;;10.30;99.90;;;;;;5073817;28;20504;-64
2022/01/03 00:36:32;;;;;;;12.63;4.70;;;10.30;99.90;;;;;;5075201;28;20188;-64
2022/01/03 00:38:58;;;;;;;7.53;4.83;;;10.30;99.90;;;;;;5073620;28;20268;-64
2022/01/03 00:41:24;;;;;;;11.60;5.50;;;10.20;99.90;;;;;;5075037;28;20206;-65
2022/01/03 00:43:53;;;;;;;14.53;5.73;;;10.20;99.90;;;;;;5074964;28;20173;-64
2022/01/03 00:46:19;;;;;;;10.07;5.07;;;10.20;99.90;;;;;;5074889;28;20198;-65
2022/01/03 00:48:45;;;;;;;14.33;5.40;;;10.20;99.90;;;;;;5074387;28;20181;-64
2022/01/03 00:51:14;;;;;;;11.03;5.50;;;10.20;99.90;;;;;;5072839;28;20273;-64
2022/01/03 00:53:40;;;;;;;11.60;5.27;;;10.20;99.90;;;;;;5074516;28;20259;-64
2022/01/03 00:56:14;;;;;;;7.77;4.50;;;10.20;99.90;;;;;;5074807;28;20192;-64
2022/01/03 00:59:03;;;;;;;13.87;5.10;;;9.90;99.90;;;;;;5073450;28;20174;-64
2022/01/03 01:01:34;;;;;;;11.63;4.43;;;9.70;99.90;;;;;;5074588;28;20165;-64
2022/01/03 01:04:03;;;;;;;7.63;5.10;;;9.40;99.90;;;;;;5074702;28;20185;-65
2022/01/03 01:06:33;;;;;;;16.37;6.80;;;9.30;99.90;;;;;;5074672;28;20212;-64
2022/01/03 01:09:02;;;;;;;14.07;5.37;;;9.30;99.90;;;;;;5075026;28;20162;-64
2022/01/03 01:11:30;;;;;;;12.13;4.90;;;9.30;99.90;;;;;;5074378;28;20170;-65
2022/01/03 01:13:57;;;;;;;14.33;6.30;;;9.20;99.90;;;;;;5073197;28;20242;-64
2022/01/03 01:16:24;;;;;;;11.40;5.47;;;9.20;99.90;;;;;;5073044;28;20178;-65
2022/01/03 01:18:50;;;;;;;16.37;5.30;;;9.30;99.90;;;;;;5074543;28;20182;-65
2022/01/03 01:21:17;;;;;;;11.40;5.67;;;9.30;99.90;;;;;;5074115;28;20178;-65
2022/01/03 01:23:43;;;;;;;11.30;4.97;;;9.20;99.90;;;;;;5074147;28;20194;-64
2022/01/03 01:28:54;;;;;;;17.30;5.43;;;9.10;99.90;;;;;;5074697;28;20161;-64
2022/01/03 01:31:22;;;;;;;13.10;5.47;;;9.00;99.90;;;;;;5074729;28;20665;-64
2022/01/03 01:33:56;;;;;;;16.23;5.43;;;9.00;99.90;;;;;;5073030;28;20588;-64
2022/01/03 01:36:28;;;;;;;13.90;5.97;;;9.00;99.90;;;;;;5074256;28;20638;-65
2022/01/03 01:39:03;;;;;;;16.30;5.30;;;9.00;99.90;;;;;;5073040;28;20177;-64
2022/01/03 01:41:30;;;;;;;20.13;6.13;;;9.10;99.90;;;;;;5074299;28;20521;-65
2022/01/03 01:44:00;;;;;;;19.07;5.50;;;9.10;99.90;;;;;;5074081;28;20655;-65
2022/01/03 01:46:26;;;;;;;19.50;5.47;;;9.10;99.90;;;;;;5073981;28;20681;-65
2022/01/03 01:48:53;;;;;;;19.17;5.43;;;9.10;99.90;;;;;;5074023;28;20170;-65
2022/01/03 01:51:22;;;;;;;14.53;5.33;;;9.10;99.90;;;;;;5074082;28;20174;-64
2022/01/03 01:53:56;;;;;;;17.37;5.53;;;9.10;99.90;;;;;;5074331;28;20590;-64
2022/01/03 01:56:23;;;;;;;11.43;4.90;;;9.20;99.90;;;;;;5074012;28;20205;-64
2022/01/03 01:59:20;;;;;;;17.70;5.37;;;9.20;99.90;;;;;;5072468;28;20590;-65
2022/01/03 02:01:46;;;;;;;16.53;5.10;;;9.30;99.90;;;;;;5072106;28;20628;-64
2022/01/03 02:04:27;;;;;;;15.77;5.47;;;9.30;99.90;;;;;;5073601;28;20181;-64
2022/01/03 02:06:57;;;;;;;19.23;5.03;;;9.30;99.90;;;;;;5073605;28;20186;-64
2022/01/03 02:09:42;;;;;;;15.07;5.03;;;9.30;99.90;;;;;;5072286;28;20231;-65
2022/01/03 02:12:14;;;;;;;12.50;4.60;;;9.40;99.90;;;;;;5073673;28;20189;-64
2022/01/03 02:14:40;;;;;;;18.00;5.43;;;9.40;99.90;;;;;;5073664;28;20162;-65
2022/01/03 02:17:06;;;;;;;13.00;4.27;;;9.40;99.90;;;;;;5074133;28;20181;-64
2022/01/03 02:19:37;;;;;;;10.03;4.73;;;9.40;99.90;;;;;;5072268;28;20200;-65
2022/01/03 02:22:03;;;;;;;12.70;5.37;;;9.40;99.90;;;;;;5073815;28;20197;-64
2022/01/03 02:24:29;;;;;;;17.37;5.70;;;9.40;99.90;;;;;;5073360;28;20228;-65
2022/01/03 02:26:56;;;;;;;12.80;4.83;;;9.50;99.90;;;;;;5073678;28;20213;-65
2022/01/03 02:29:22;;;;;;;15.00;5.23;;;9.50;99.90;;;;;;5072164;28;20177;-65
2022/01/03 02:31:47;;;;;;;16.63;5.47;;;9.50;99.90;;;;;;5073813;28;20231;-65
2022/01/03 02:34:13;;;;;;;13.63;5.23;;;9.50;99.90;;;;;;5072110;28;20630;-65
2022/01/03 02:36:44;;;;;;;15.90;4.87;;;9.50;99.90;;;;;;5073431;28;20178;-65
2022/01/03 02:39:10;;;;;;;15.37;4.83;;;9.50;99.90;;;;;;5073549;28;20649;-64
2022/01/03 02:41:35;;;;;;;11.87;4.57;;;9.50;99.90;;;;;;5073101;28;20174;-65
2022/01/03 02:44:01;;;;;;;12.57;4.17;;;9.50;99.90;;;;;;5073484;28;20272;-65
2022/01/03 02:46:27;;;;;;;11.60;4.63;;;9.50;99.90;;;;;;5071907;28;20288;-65
2022/01/03 02:48:53;;;;;;;16.57;5.13;;;9.60;99.90;;;;;;5071849;28;20170;-65
2022/01/03 02:51:19;;;;;;;13.23;4.60;;;9.60;99.90;;;;;;5073099;28;20211;-65
2022/01/03 02:53:45;;;;;;;9.63;4.67;;;9.60;99.90;;;;;;5073085;28;20186;-65
2022/01/03 02:56:11;;;;;;;15.73;5.53;;;9.60;99.90;;;;;;5073209;28;20246;-64
2022/01/03 02:58:36;;;;;;;12.60;4.87;;;9.60;99.90;;;;;;5073264;28;20178;-64
2022/01/03 03:01:03;;;;;;;15.73;5.23;;;9.60;99.90;;;;;;5071918;28;20178;-65
2022/01/03 03:03:29;;;;;;;12.87;4.87;;;9.60;99.90;;;;;;5073108;28;20659;-65
2022/01/03 03:05:55;;;;;;;14.53;4.30;;;9.60;99.90;;;;;;5071713;28;20204;-64
2022/01/03 03:08:21;;;;;;;14.27;4.70;;;9.60;99.90;;;;;;5073338;28;20177;-65
2022/01/03 03:10:46;;;;;;;12.73;4.53;;;9.80;99.90;;;;;;5071704;28;20224;-65
2022/01/03 03:13:13;;;;;;;11.33;4.27;;;9.70;99.90;;;;;;5074817;28;20186;-66
2022/01/03 03:15:39;;;;;;;16.13;5.07;;;9.70;99.90;;;;;;5076993;28;20178;-66
2022/01/03 03:18:04;;;;;;;11.97;4.70;;;9.70;99.90;;;;;;5075377;28;20177;-66
2022/01/03 03:20:33;;;;;;;14.50;5.30;;;9.60;99.90;;;;;;5076587;28;20646;-66
2022/01/03 03:22:59;;;;;;;17.50;5.43;;;9.60;99.90;;;;;;5076420;28;20193;-66
2022/01/03 03:25:28;;;;;;;12.47;4.73;;;9.60;99.90;;;;;;5075105;28;20559;-67
2022/01/03 03:28:00;;;;;;;18.30;4.60;;;9.60;99.90;;;;;;5076715;28;20662;-66
2022/01/03 03:30:32;;;;;;;16.20;5.30;;;9.60;99.90;;;;;;5076824;28;20186;-66
2022/01/03 03:33:28;;;;;;;12.77;5.00;;;9.60;99.90;;;;;;5076457;28;20186;-66
2022/01/03 03:35:54;;;;;;;15.17;4.93;;;9.70;99.90;;;;;;5076473;28;20729;-67
2022/01/03 03:38:23;;;;;;;16.03;4.97;;;9.60;99.90;;;;;;5074971;28;20545;-66
2022/01/03 03:40:49;;;;;;;11.67;4.37;;;9.70;99.90;;;;;;5075079;28;20206;-66
2022/01/03 03:43:16;;;;;;;17.23;5.57;;;9.70;99.90;;;;;;5074863;28;20208;-67
2022/01/03 03:45:42;;;;;;;10.73;4.83;;;9.70;99.90;;;;;;5076074;28;20236;-66
2022/01/03 03:48:08;;;;;;;10.47;4.23;;;9.70;99.90;;;;;;5076362;28;20219;-66
2022/01/03 03:50:34;;;;;;;9.67;4.40;;;9.70;99.90;;;;;;5076045;28;20256;-66
2022/01/03 03:52:59;;;;;;;14.73;4.77;;;9.70;99.90;;;;;;5075833;28;20674;-66
2022/01/03 03:55:25;;;;;;;12.97;4.50;;;9.70;99.90;;;;;;5076017;28;20535;-66
2022/01/03 03:57:51;;;;;;;13.53;4.60;;;9.60;99.90;;;;;;5075833;28;20169;-66
2022/01/03 04:00:18;;;;;;;15.80;4.70;;;9.60;99.90;;;;;;5075816;28;20173;-66
2022/01/03 04:02:45;;;;;;;12.07;4.60;;;9.60;99.90;;;;;;5075900;28;20192;-66
2022/01/03 04:05:11;;;;;;;18.17;4.70;;;9.60;99.90;;;;;;5076003;28;20510;-64
2022/01/03 04:07:37;;;;;;;9.30;4.50;;;9.60;99.90;;;;;;5075956;28;20193;-65
2022/01/03 04:10:08;;;;;;;12.90;5.23;;;9.60;99.90;;;;;;5075733;28;20215;-65
2022/01/03 04:12:34;;;;;;;11.10;4.57;;;9.60;99.90;;;;;;5074398;28;20216;-65
2022/01/03 04:15:00;;;;;;;12.37;4.90;;;9.60;99.90;;;;;;5076519;28;20165;-64
2022/01/03 04:17:26;;;;;;;13.40;4.27;;;9.50;99.90;;;;;;5076440;28;20174;-65
2022/01/03 04:19:52;;;;;;;17.77;5.20;;;9.60;99.90;;;;;;5075963;28;20178;-65
2022/01/03 04:22:18;;;;;;;14.03;4.87;;;9.60;99.90;;;;;;5075400;28;20205;-64
2022/01/03 04:24:43;;;;;;;16.70;5.07;;;9.60;99.90;;;;;;5075321;28;20170;-64
2022/01/03 04:27:09;;;;;;;21.33;5.23;;;9.60;99.90;;;;;;5074016;28;20217;-64
2022/01/03 04:29:35;;;;;;;10.50;4.87;;;9.60;99.90;;;;;;5075521;28;20650;-65
2022/01/03 04:32:01;;;;;;;11.33;4.80;;;9.60;99.90;;;;;;5075256;28;20217;-64
2022/01/03 04:34:26;;;;;;;14.57;4.83;;;9.70;99.90;;;;;;5075330;28;20169;-65
2022/01/03 04:36:52;;;;;;;9.13;3.93;;;9.70;99.90;;;;;;5074998;28;20185;-65
2022/01/03 04:39:18;;;;;;;13.43;4.17;;;9.70;99.90;;;;;;5075128;28;20248;-65
2022/01/03 04:41:44;;;;;;;12.93;4.73;;;9.70;99.90;;;;;;5075016;28;20211;-65
2022/01/03 04:44:09;;;;;;;9.00;5.00;;;9.70;99.90;;;;;;5075371;28;20177;-64
2022/01/03 04:46:36;;;;;;;15.83;5.10;;;9.70;99.90;;;;;;5074939;28;20201;-65
2022/01/03 04:49:05;;;;;;;19.50;5.30;;;9.60;99.90;;;;;;5075055;28;20195;-65
2022/01/03 04:51:31;;;;;;;8.33;4.33;;;9.70;99.90;;;;;;5073596;28;20173;-65
2022/01/03 04:53:57;;;;;;;11.00;4.53;;;9.60;99.90;;;;;;5075171;28;20170;-65
2022/01/03 04:56:23;;;;;;;20.50;5.20;;;9.60;99.90;;;;;;5074784;28;20264;-64
2022/01/03 04:58:49;;;;;;;10.93;4.43;;;9.50;99.90;;;;;;5074767;28;20253;-65
2022/01/03 05:01:15;;;;;;;9.57;4.03;;;9.50;99.90;;;;;;5074800;28;20178;-65
2022/01/03 05:03:40;;;;;;;9.17;4.43;;;9.50;99.90;;;;;;5075028;28;20198;-65
2022/01/03 05:06:06;;;;;;;11.70;4.83;;;9.50;99.90;;;;;;5074417;28;20205;-65
2022/01/03 05:08:33;;;;;;;17.13;4.80;;;9.40;99.90;;;;;;5074469;28;20181;-64
2022/01/03 05:11:00;;;;;;;10.90;4.23;;;9.50;99.90;;;;;;5074500;28;20198;-65
2022/01/03 05:13:27;;;;;;;18.90;5.23;;;9.50;99.90;;;;;;5074374;28;20182;-65
2022/01/03 05:15:53;;;;;;;15.07;5.70;;;9.40;99.90;;;;;;5074405;28;20177;-65
2022/01/03 05:18:19;;;;;;;17.03;5.43;;;9.40;99.90;;;;;;5074226;28;20165;-64
2022/01/03 05:20:45;;;;;;;14.93;4.30;;;9.40;99.90;;;;;;5074374;28;20215;-65
2022/01/03 05:23:10;;;;;;;12.97;4.70;;;9.40;99.90;;;;;;5072885;28;20270;-65
2022/01/03 05:25:36;;;;;;;10.97;4.43;;;9.30;99.90;;;;;;5072987;28;20266;-64
2022/01/03 05:28:02;;;;;;;13.03;4.90;;;9.30;99.90;;;;;;5074413;28;20166;-68
2022/01/03 05:30:28;;;;;;;12.27;4.53;;;9.30;99.90;;;;;;5074215;28;20264;-65
2022/01/03 05:32:54;;;;;;;21.23;5.43;;;9.30;99.90;;;;;;5074049;28;20200;-65
2022/01/03 05:35:19;;;;;;;12.63;4.97;;;9.40;99.90;;;;;;5073536;28;20260;-64
2022/01/03 05:37:45;;;;;;;13.43;4.93;;;9.40;99.90;;;;;;5074027;28;20220;-64
2022/01/03 05:40:11;;;;;;;13.17;4.87;;;9.30;99.90;;;;;;5073823;28;20191;-65
2022/01/03 05:42:37;;;;;;;15.53;5.20;;;9.40;99.90;;;;;;5073998;28;20285;-65
2022/01/03 05:45:04;;;;;;;17.80;4.63;;;9.30;99.90;;;;;;5074157;28;20173;-65
2022/01/03 05:47:30;;;;;;;15.73;4.83;;;9.30;99.90;;;;;;5073819;28;20619;-65
2022/01/03 05:49:57;;;;;;;15.30;4.70;;;9.40;99.90;;;;;;5073893;28;20253;-65
2022/01/03 05:52:22;;;;;;;13.57;5.07;;;9.40;99.90;;;;;;5074037;28;20208;-64
2022/01/03 05:54:48;;;;;;;13.80;5.33;;;9.40;99.90;;;;;;5072383;28;20174;-64
2022/01/03 05:57:14;;;;;;;12.40;4.30;;;9.40;99.90;;;;;;5073871;28;20177;-64
2022/01/03 05:59:40;;;;;;;16.77;4.90;;;9.40;99.90;;;;;;5073836;28;20173;-65
2022/01/03 06:02:06;;;;;;;13.23;5.50;;;9.50;99.90;;;;;;5073635;28;20659;-64
2022/01/03 06:07:27;;;;;;;12.90;4.23;;;9.50;99.90;;;;;;5077709;28;20217;-64
2022/01/03 06:09:53;;;;;;;21.57;5.23;;;9.50;99.90;;;;;;5072235;28;20531;-64
2022/01/03 06:12:19;;;;;;;7.20;3.73;;;9.50;99.90;;;;;;5073343;28;20674;-64
2022/01/03 06:14:46;;;;;;;11.17;4.07;;;9.50;99.90;;;;;;5073407;28;20638;-64
2022/01/03 06:17:12;;;;;;;15.87;4.13;;;9.50;99.90;;;;;;5073360;28;20181;-64
2022/01/03 06:19:38;;;;;;;16.97;4.17;;;9.50;99.90;;;;;;5073325;28;20181;-64
2022/01/03 06:22:07;;;;;;;19.60;4.90;;;9.50;99.90;;;;;;5072115;28;20213;-64
2022/01/03 06:24:33;;;;;;;13.90;5.03;;;9.50;99.90;;;;;;5072017;28;20725;-64
2022/01/03 06:26:59;;;;;;;8.53;4.30;;;9.50;99.90;;;;;;5071972;28;20266;-64
2022/01/03 06:29:24;;;;;;;13.47;5.00;;;9.50;99.90;;;;;;5071978;28;20646;-64
2022/01/03 06:31:50;;;;;;;16.73;4.30;;;9.50;99.90;;;;;;5073279;28;20228;-65
2022/01/03 06:34:17;;;;;;;13.33;4.83;;;9.50;99.90;;;;;;5073487;28;20178;-65
2022/01/03 06:36:43;;;;;;;10.87;4.60;;;9.50;99.90;;;;;;5073788;28;20177;-64
2022/01/03 06:39:11;;;;;;;12.50;5.47;;;9.40;99.90;;;;;;5073388;28;20178;-64
2022/01/03 06:41:39;;;;;;;12.50;4.83;;;9.40;99.90;;;;;;5073096;28;20681;-65
2022/01/03 06:44:05;;;;;;;10.53;4.60;;;9.40;99.90;;;;;;5073365;28;20177;-64
2022/01/03 06:46:31;;;;;;;11.07;4.90;;;9.40;99.90;;;;;;5073307;28;20254;-65
2022/01/03 06:48:57;;;;;;;20.47;5.10;;;9.40;99.90;;;;;;5075770;28;20173;-64
2022/01/03 06:51:22;;;;;;;9.17;4.53;;;9.40;99.90;;;;;;5075928;28;20181;-65
2022/01/03 06:53:49;;;;;;;11.67;4.63;;;9.40;99.90;;;;;;5077012;28;20546;-65
2022/01/03 06:56:14;;;;;;;16.77;4.90;;;9.40;99.90;;;;;;5077194;28;20199;-64
2022/01/03 06:58:42;;;;;;;10.37;5.00;;;9.50;99.90;;;;;;5076878;28;20185;-64
2022/01/03 07:01:09;;;;;;;13.93;5.00;;;9.50;99.90;;;;;;5075679;28;20181;-65
2022/01/03 07:03:34;;;;;;;13.77;4.30;;;9.50;99.90;;;;;;5077114;28;20221;-64
2022/01/03 07:06:00;;;;;;;14.97;5.00;;;9.50;99.90;;;;;;5076929;28;20267;-64
2022/01/03 07:08:26;;;;;;;15.30;5.30;;;9.50;99.90;;;;;;5075419;28;20193;-64
2022/01/03 07:10:52;;;;;;;23.53;5.00;;;9.50;99.90;;;;;;5076615;28;20599;-64
2022/01/03 07:13:18;;;;;;;13.20;4.73;;;9.50;99.90;;;;;;5075238;28;20202;-64
2022/01/03 07:21:12;;;;;;;15.67;4.43;;;9.50;99.90;;;;;;5076752;28;20169;-64
2022/01/03 07:23:40;;;;;;;16.33;4.80;;;9.60;99.90;;;;;;5076377;28;20666;-64
2022/01/03 07:26:06;;;;;;;12.00;4.40;;;9.60;99.90;;;;;;5076122;28;20217;-65
2022/01/03 07:28:32;;;;;;;10.20;4.60;;;9.50;99.90;;;;;;5076595;28;20178;-64
2022/01/03 07:30:58;;;;;;;11.87;4.20;;;9.50;99.90;;;;;;5076581;28;20170;-64
2022/01/03 07:33:24;;;;;;;10.13;4.40;;;9.60;99.90;;;;;;5076150;28;20198;-65
2022/01/03 07:35:49;;;;;;;15.77;4.97;;;9.50;99.90;;;;;;5074937;28;20174;-64
2022/01/03 07:38:15;;;;;;;15.63;4.70;;;9.60;99.90;;;;;;5076387;28;20182;-64
2022/01/03 07:40:41;;;;;;;14.90;4.97;;;9.60;99.90;;;;;;5076393;28;20544;-64
2022/01/03 07:43:07;;;;;;;15.53;5.73;;;9.60;99.90;;;;;;5076038;28;20194;-65
2022/01/03 07:45:33;;;;;;;13.30;4.90;;;9.60;99.90;;;;;;5076277;28;20552;-65
2022/01/03 07:47:59;;;;;;;13.23;4.90;;;9.50;99.90;;;;;;5075898;28;20204;-65
2022/01/03 07:50:25;;;;;;;18.00;4.53;;;9.50;99.90;;;;;;5076281;28;20169;-65
2022/01/03 07:52:51;;;;;;;12.60;5.47;;;9.50;99.90;;;;;;5074589;28;20234;-64
2022/01/03 07:55:18;;;;;;;14.87;5.27;;;9.50;99.90;;;;;;5075920;28;20669;-64
2022/01/03 07:57:45;;;;;;;16.33;5.50;;;9.50;99.90;;;;;;5074566;28;20646;-64
2022/01/03 08:00:14;;;;;;;15.33;5.70;;;9.50;99.90;;;;;;5075301;28;20190;-64
2022/01/03 08:02:41;;;;;;;15.40;4.87;;;9.50;99.90;;;;;;5075887;28;20190;-64
2022/01/03 08:05:09;;;;;;;14.37;5.50;;;9.50;99.90;;;;;;5074447;28;20184;-65
2022/01/03 08:07:38;;;;;;;16.97;4.97;;;9.50;99.90;;;;;;5075598;28;20201;-64
2022/01/03 08:10:06;;;;;;;13.27;5.03;;;9.50;99.90;;;;;;5074355;28;20185;-65
2022/01/03 08:12:32;;;;;;;9.77;4.90;;;9.50;99.90;;;;;;5075530;28;20193;-65
2022/01/03 08:14:58;;;;;;;13.93;5.00;;;9.50;99.90;;;;;;5075795;28;20166;-64
2022/01/03 08:17:23;;;;;;;15.17;5.03;;;9.50;99.90;;;;;;5075520;28;20205;-65
2022/01/03 08:19:50;;;;;;;12.63;4.47;;;9.50;99.90;;;;;;5075404;28;20189;-65
2022/01/03 08:22:17;;;;;;;16.10;5.03;;;9.50;99.90;;;;;;5075263;28;20202;-65
2022/01/03 08:24:44;;;;;;;11.63;5.30;;;9.60;99.90;;;;;;5074034;28;20182;-65
2022/01/03 08:27:09;;;;;;;12.73;5.20;;;9.60;99.90;;;;;;5075182;28;20275;-65
2022/01/03 08:29:35;;;;;;;10.97;5.00;;;9.60;99.90;;;;;;5075549;28;20559;-64
2022/01/03 08:32:01;;;;;;;15.13;5.53;;;9.60;99.90;;;;;;5075106;28;20232;-65
2022/01/03 08:34:27;;;;;;;14.70;4.57;;;9.60;99.90;;;;;;5075647;28;20222;-65
2022/01/03 08:36:52;;;;;;;12.30;4.83;;;9.60;99.90;;;;;;5075340;28;20552;-65
2022/01/03 08:39:18;;;;;;;14.73;5.00;;;9.50;99.90;;;;;;5074994;28;20178;-65
2022/01/03 08:41:44;;;;;;;15.27;5.17;;;9.50;99.90;;;;;;5074891;28;20170;-65
2022/01/03 08:44:10;;;;;;;17.70;5.13;;;9.60;99.90;;;;;;5074915;28;20206;-65
2022/01/03 08:46:36;;;;;;;16.57;4.80;;;9.60;99.90;;;;;;5075086;28;20194;-65
2022/01/03 08:49:02;;;;;;;17.77;5.13;;;9.60;99.90;;;;;;5074854;28;20177;-65
2022/01/03 08:51:28;;;;;;;17.87;5.93;;;9.60;99.90;;;;;;5074942;28;20178;-65
2022/01/03 08:53:53;;;;;;;13.13;5.10;;;9.60;99.90;;;;;;5073493;28;20205;-65
2022/01/03 08:56:19;;;;;;;15.80;4.90;;;9.60;99.90;;;;;;5074712;28;20178;-65
2022/01/03 08:58:45;;;;;;;17.47;5.60;;;9.60;99.90;;;;;;5073432;28;20177;-64
2022/01/03 09:01:11;;;;;;;12.77;4.83;;;9.60;99.90;;;;;;5074635;28;20545;-64
2022/01/03 09:03:37;;;;;;;14.67;5.63;;;9.60;99.90;;;;;;5074663;28;20193;-64
2022/01/03 09:06:04;;;;;;;11.63;5.77;;;9.60;99.90;;;;;;5073132;28;20212;-64
2022/01/03 09:08:30;;;;;;;10.30;5.53;;;9.60;99.90;;;;;;5074404;28;20226;-65
2022/01/03 09:10:56;;;;;;;12.77;5.60;;;9.60;99.90;;;;;;5073472;28;20265;-65
2022/01/03 09:13:22;;;;;;;13.57;5.50;;;9.70;99.90;;;;;;5074220;28;20194;-65
2022/01/03 09:15:49;;;;;;;13.00;5.57;;;9.70;99.90;;;;;;5074809;28;20174;-65
2022/01/03 09:18:17;;;;;;;15.50;5.47;;;9.60;99.90;;;;;;5072905;28;20181;-65
2022/01/03 09:20:43;;;;;;;17.13;5.73;;;9.60;99.90;;;;;;5072897;28;20178;-65
2022/01/03 09:23:22;;;;;;;14.13;4.87;;;9.70;99.90;;;;;;5074094;28;20186;-65
2022/01/03 09:31:22;;;;;;;9.63;4.57;;;9.70;99.90;;;;;;5074446;28;20173;-65
2022/01/03 09:33:48;;;;;;;16.53;5.77;;;9.80;99.90;;;;;;5073868;28;20336;-65
2022/01/03 09:36:15;;;;;;;17.53;5.33;;;9.80;99.90;;;;;;5074089;28;20653;-64
2022/01/03 09:38:40;;;;;;;12.97;5.70;;;9.90;99.90;;;;;;5073897;28;20163;-65
2022/01/03 09:41:07;;;;;;;16.37;6.20;;;9.80;99.90;;;;;;5073794;28;20177;-65
2022/01/03 09:43:55;;;;;;;16.23;6.00;;;9.80;99.90;;;;;;5072388;28;20210;-65
2022/01/03 09:46:27;;;;;;;19.87;6.37;;;9.80;99.90;;;;;;5073998;28;20193;-66
2022/01/03 09:48:54;;;;;;;14.17;5.97;;;9.70;99.90;;;;;;5073799;28;20174;-67
2022/01/03 09:51:22;;;;;;;14.90;6.07;;;9.80;99.90;;;;;;5072499;28;20174;-67
2022/01/03 09:53:50;;;;;;;13.07;5.70;;;9.80;99.90;;;;;;5072282;28;20203;-67
2022/01/03 09:56:17;;;;;;;16.47;5.30;;;9.80;99.90;;;;;;5072348;28;20185;-66
2022/01/03 09:58:43;;;;;;;18.33;6.53;;;9.80;99.90;;;;;;5073919;28;20162;-66
2022/01/03 10:01:10;;;;;;;13.63;6.40;;;9.90;99.90;;;;;;5072631;28;20227;-66
2022/01/03 10:03:36;;;;;;;17.20;5.80;;;10.00;99.90;;;;;;5074460;28;20233;-66
2022/01/03 10:06:02;;;;;;;14.37;5.20;;;10.00;99.90;;;;;;5073626;28;20213;-67
2022/01/03 10:08:28;;;;;;;15.67;5.73;;;10.10;99.90;;;;;;5073617;28;20657;-67
2022/01/03 10:10:54;;;;;;;18.10;5.57;;;10.20;99.90;;;;;;5072138;28;20178;-67
2022/01/03 10:13:20;;;;;;;15.10;5.93;;;10.20;99.90;;;;;;5072032;28;20605;-67
2022/01/03 10:15:47;;;;;;;12.87;5.43;;;10.20;99.90;;;;;;5073339;28;20209;-67
2022/01/03 10:18:20;;;;;;;10.77;5.00;;;10.20;99.90;;;;;;5073839;28;20584;-67
2022/01/03 10:20:46;;;;;;;14.73;5.37;;;10.20;99.90;;;;;;5073745;28;20256;-68
2022/01/03 10:23:14;;;;;;;14.73;4.97;;;10.20;99.90;;;;;;5073205;28;20194;-69
2022/01/03 10:25:41;;;;;;;13.97;5.43;;;10.20;99.90;;;;;;5073057;28;20635;-69
2022/01/03 10:28:07;;;;;;;15.40;5.87;;;10.20;99.90;;;;;;5073275;28;20190;-68
2022/01/03 10:30:45;;;;;;;20.20;5.33;;;10.10;99.90;;;;;;5072036;28;20206;-68
2022/01/03 10:33:16;;;;;;;16.87;4.80;;;10.20;99.90;;;;;;5072079;28;20202;-69
2022/01/03 10:35:44;;;;;;;9.23;5.00;;;10.20;99.90;;;;;;5073304;28;20185;-69
2022/01/03 10:38:11;;;;;;;15.50;5.33;;;10.20;99.90;;;;;;5073706;28;20197;-69
2022/01/03 10:40:38;;;;;;;16.10;4.83;;;10.30;99.90;;;;;;5073330;28;20193;-69
2022/01/03 10:43:17;;;;;;;14.43;5.17;;;10.30;99.90;;;;;;5071800;28;20285;-69
2022/01/03 10:45:44;;;;;;;12.20;4.63;;;10.30;99.90;;;;;;5073698;28;20209;-69
2022/01/03 10:48:27;;;;;;;16.17;5.20;;;10.30;99.90;;;;;;5073063;28;20190;-69
2022/01/03 10:50:57;;;;;;;10.53;4.50;;;10.30;99.90;;;;;;5071796;28;20202;-69
2022/01/03 10:53:42;;;;;;;11.70;4.30;;;10.30;99.90;;;;;;5073316;28;20246;-69
2022/01/03 10:56:38;;;;;;;13.17;4.77;;;10.30;99.90;;;;;;5073563;28;20180;-69
2022/01/03 10:59:30;;;;;;;14.50;5.00;;;10.30;99.90;;;;;;5071637;28;20256;-69
2022/01/03 11:02:02;;;;;;;10.97;4.83;;;10.40;99.90;;;;;;5071589;28;20198;-69
2022/01/03 11:04:33;;;;;;;12.30;4.93;;;10.50;99.90;;;;;;5071544;28;20213;-69
2022/01/03 11:13:18;;;;;;;9.73;5.30;;;10.90;99.90;;;;;;5073135;28;20201;-68
2022/01/03 11:15:55;;;;;;;12.43;5.10;;;11.00;99.90;;;;;;5072785;28;20581;-68
2022/01/03 11:18:24;;;;;;;9.43;4.50;;;10.90;99.90;;;;;;5073308;28;20158;-69
2022/01/03 11:21:33;;;;;;;14.33;4.40;;;10.80;99.90;;;;;;5073096;28;20520;-67
2022/01/03 11:24:09;;;;;;;15.60;5.43;;;10.80;99.90;;;;;;5071417;28;20177;-67
2022/01/03 11:26:49;;;;;;;13.27;4.73;;;10.80;99.90;;;;;;5071117;28;20220;-67
2022/01/03 11:29:18;;;;;;;14.77;4.73;;;10.70;99.90;;;;;;5072542;28;20178;-67
2022/01/03 11:31:49;;;;;;;8.87;4.50;;;10.70;99.90;;;;;;5071152;28;20649;-67
2022/01/03 11:34:21;;;;;;;15.40;4.80;;;10.70;99.90;;;;;;5074327;28;20225;-67
2022/01/03 11:36:51;;;;;;;10.03;5.03;;;10.60;99.90;;;;;;5074941;28;20182;-67
2022/01/03 11:39:23;;;;;;;10.03;4.53;;;10.60;99.90;;;;;;5076185;28;20170;-67
2022/01/03 11:41:51;;;;;;;15.07;4.70;;;10.60;99.90;;;;;;5074874;28;20658;-67
2022/01/03 11:44:17;;;;;;;17.93;4.77;;;10.60;99.90;;;;;;5076171;28;20185;-67
2022/01/03 11:46:48;;;;;;;15.43;4.50;;;10.60;99.90;;;;;;5074690;28;20271;-67
2022/01/03 11:49:22;;;;;;;10.57;4.80;;;10.60;99.90;;;;;;5074769;28;20178;-67
2022/01/03 11:51:51;;;;;;;9.50;5.00;;;10.60;99.90;;;;;;5074620;28;20198;-67
2022/01/03 11:54:24;;;;;;;17.20;6.57;;;10.60;99.90;;;;;;5075895;28;20182;-66
2022/01/03 11:57:09;;;;;;;13.67;5.00;;;10.60;99.90;;;;;;5075917;28;20178;-66
2022/01/03 12:05:12;;;;;;;16.60;5.57;;;10.60;99.90;;;;;;5075818;28;20188;-66
2022/01/03 12:07:58;;;;;;;12.03;5.07;;;10.60;99.90;;;;;;5075959;28;20220;-66
2022/01/03 12:10:24;;;;;;;19.33;5.13;;;10.60;99.90;;;;;;5075685;28;20154;-66
2022/01/03 12:12:58;;;;;;;10.77;4.90;;;10.60;99.90;;;;;;5076117;28;20654;-67
2022/01/03 12:15:35;;;;;;;16.00;4.70;;;10.60;99.90;;;;;;5074470;28;20231;-66
2022/01/03 12:18:01;;;;;;;21.23;5.67;;;10.60;99.90;;;;;;5076224;28;20166;-67
2022/01/03 12:20:46;;;;;;;15.07;5.07;;;10.60;99.90;;;;;;5074095;28;20188;-66
2022/01/03 12:23:43;;;;;;;15.20;5.13;;;10.60;99.90;;;;;;5075424;28;20193;-66
2022/01/03 12:26:13;;;;;;;17.20;5.70;;;10.70;99.90;;;;;;5074110;28;20243;-66
2022/01/03 12:29:07;;;;;;;12.43;5.27;;;10.70;99.90;;;;;;5075500;28;20178;-66
2022/01/03 12:32:03;;;;;;;11.03;4.53;;;10.70;99.90;;;;;;5077483;28;20173;-67
2022/01/03 12:34:29;;;;;;;18.47;4.70;;;10.80;99.90;;;;;;5075300;28;20162;-69
2022/01/03 12:37:17;;;;;;;13.50;5.00;;;10.80;99.90;;;;;;5075753;28;20173;-69
2022/01/03 12:40:05;;;;;;;10.47;4.57;;;10.70;99.90;;;;;;5075241;28;20266;-69
2022/01/03 12:42:48;;;;;;;7.97;4.00;;;10.70;99.90;;;;;;5073958;28;20235;-69
2022/01/03 12:45:29;;;;;;;13.83;3.90;;;10.70;99.90;;;;;;5073722;28;20177;-69
2022/01/03 12:48:17;;;;;;;13.57;4.50;;;10.70;99.90;;;;;;5074291;28;20205;-69
2022/01/03 12:51:03;;;;;;;14.40;4.93;;;10.70;99.90;;;;;;5075451;28;20215;-68
2022/01/03 12:53:29;;;;;;;8.97;3.80;;;10.70;99.90;;;;;;5075307;28;20670;-67
2022/01/03 12:56:01;;;;;;;12.87;4.73;;;10.60;99.90;;;;;;5074726;28;20200;-66
2022/01/03 12:58:29;;;;;;;12.70;4.20;;;10.60;99.90;;;;;;5073599;28;20177;-67
2022/01/03 13:01:13;;;;;;;13.53;4.77;;;10.60;99.90;;;;;;5074930;28;20158;-67
2022/01/03 13:03:39;;;;;;;11.30;4.40;;;10.60;99.90;;;;;;5074590;28;20562;-67
2022/01/03 13:06:25;;;;;;;8.07;3.83;;;10.60;99.90;;;;;;5074946;28;20248;-67
2022/01/03 13:08:56;;;;;;;14.30;4.17;;;10.50;99.90;;;;;;5073439;28;20238;-67
2022/01/03 13:11:33;;;;;;;13.93;4.40;;;10.50;99.90;;;;;;5073181;28;20185;-67
2022/01/03 13:14:08;;;;;;;10.77;4.73;;;10.50;99.90;;;;;;5074416;28;20622;-67
2022/01/03 13:17:03;;;;;;;7.67;3.70;;;10.50;99.90;;;;;;5074492;28;20168;-67
2022/01/03 13:19:36;;;;;;;7.53;3.73;;;10.40;99.90;;;;;;5074352;28;20166;-67
2022/01/03 13:22:13;;;;;;;12.90;4.23;;;10.40;99.90;;;;;;5074437;28;20200;-67
2022/01/03 13:24:48;;;;;;;15.17;4.57;;;10.30;99.90;;;;;;5074877;28;20162;-67